CDT,Max TemperatureF,Mean TemperatureF,Min TemperatureF,Max Dew PointF,MeanDew PointF,Min DewpointF,Max Humidity, Mean Humidity, Min Humidity, Max Sea Level PressureIn, Mean Sea Level PressureIn, Min Sea Level PressureIn, Max VisibilityMiles, Mean VisibilityMiles, Min VisibilityMiles, Max Wind SpeedMPH, Mean Wind SpeedMPH, Max Gust SpeedMPH,PrecipitationIn, CloudCover, Events, WindDirDegrees
2014-7-1,80,73,66,68,64,61,100,79,57,29.84,29.76,29.68,10,10,5,21,10,30,0.05,4,Rain,242
2014-7-2,67,63,59,63,57,54,96,80,65,30.05,29.95,29.84,10,9,2,14,9,20,0.04,8,Rain,289
2014-7-3,75,66,59,59,55,46,96,71,38,30.22,30.14,30.04,10,10,4,14,6,18,0.03,4,Rain,323
2014-7-4,79,66,54,60,54,49,97,64,37,30.33,30.29,30.23,10,9,0,8,3,,0.00,1,Fog,250
2014-7-5,75,67,59,62,58,54,91,72,49,30.27,30.19,30.07,10,10,5,16,6,21,0.05,4,Rain,181
2014-7-6,86,74,63,72,67,60,92,76,61,30.06,29.89,29.76,10,10,10,21,11,26,0.05,5,Thunderstorm,210
2014-7-7,85,78,72,72,68,61,92,71,44,29.79,29.76,29.65,10,10,7,16,10,24,0.00,2,Thunderstorm,266
2014-7-8,80,73,66,69,63,58,86,68,50,29.87,29.76,29.65,10,10,10,25,12,36,0.00,3,Rain,269
2014-7-9,78,70,61,61,57,54,90,67,44,30.08,29.97,29.87,10,10,10,14,8,20,0.00,1,,312
2014-7-10,81,69,57,58,56,54,90,64,41,30.19,30.14,30.09,10,10,10,8,2,,0.00,1,,144
2014-7-11,81,69,58,66,59,55,91,66,44,30.21,30.16,30.07,10,10,10,14,5,17,0.00,1,,149
2014-7-12,86,78,71,76,71,64,94,82,69,30.11,30.00,29.86,10,10,2,17,9,23,0.33,5,Rain-Thunderstorm,190
2014-7-13,83,74,66,72,66,64,95,79,52,29.99,29.94,29.88,10,10,2,22,10,30,0.41,5,Rain-Thunderstorm,289
2014-7-14,78,68,58,68,59,50,98,71,38,29.93,29.88,29.84,10,9,0,18,6,25,0.00,3,Fog,280
2014-7-15,68,60,52,56,52,49,92,74,59,30.01,29.97,29.91,10,10,10,20,11,26,0.00,5,Rain,306
2014-7-16,72,62,53,58,53,49,95,70,45,30.06,30.03,30.01,10,10,10,12,5,16,0.00,3,,324
2014-7-17,78,66,55,59,56,52,92,69,42,30.12,30.09,30.05,10,10,10,9,3,,0.00,1,,212
2014-7-18,80,70,59,60,57,55,87,66,44,30.18,30.13,30.09,10,10,10,10,3,,0.00,2,,154
2014-7-19,79,66,55,60,56,53,92,65,42,30.11,30.07,30.03,10,10,10,9,2,,0.00,1,,164
2014-7-20,80,70,60,63,60,56,88,70,49,30.09,30.05,30.02,10,10,10,10,4,,0.00,1,,179
2014-7-21,84,74,63,70,65,58,85,71,55,30.12,30.07,30.03,10,10,7,14,7,16,0.00,0,,174
2014-7-22,89,78,67,75,70,64,88,75,59,30.07,30.01,29.94,10,10,7,16,10,21,0.00,1,,216
2014-7-23,78,68,59,75,59,52,89,65,46,30.17,30.12,30.00,10,10,7,16,10,24,0.00,2,,38
2014-7-24,77,66,55,56,53,48,88,62,42,30.19,30.13,30.03,10,10,7,12,6,,0.00,0,,56
2014-7-25,70,64,59,61,58,51,88,77,66,30.11,30.00,29.92,10,10,7,17,8,26,0.02,5,Rain,170
2014-7-26,79,72,66,72,67,60,93,82,73,29.92,29.85,29.81,10,9,4,12,6,,0.00,7,Rain,192
2014-7-27,81,72,63,72,63,56,98,74,44,29.94,29.84,29.80,10,7,0,28,9,39,0.00,2,Fog,297
2014-7-28,72,64,57,60,53,48,89,68,44,30.13,30.08,29.95,10,10,10,18,9,24,0.00,3,,340
2014-7-29,79,66,54,60,56,52,92,69,46,30.11,30.07,30.03,10,10,10,16,9,23,0.00,1,,287
2014-7-30,79,68,58,61,59,55,91,72,48,30.08,30.05,30.02,10,10,10,10,5,16,0.00,2,,291
2014-7-31,82,70,59,64,60,56,95,72,48,30.08,30.06,30.04,10,10,1,13,6,16,0.00,1,,262